Overview Statistics Trail Chart Weather Telemetry Raw packets
 

This is the latest recevied weather packets stored in our database for station/object EA3CH. If no packets are shown the sender has not sent any weather packets the latest 10 day(s).

<< 41 42 43 44 45 46 47 >>
Time Temp. Humidity Pressure Rain* Wind** Luminosity Snow
1787814904 22.22° C 96% 1014 hPa 0 mm - 0 W/m² -
1787814009 22.78° C 86% 1013.5 hPa 0 mm - 0 W/m² -
1787814009 22.22° C 97% 1013.7 hPa 0 mm - 0 W/m² -
1787813103 21.67° C 97% 1013.7 hPa 0 mm - 0 W/m² -
1787812206 21.67° C 85% 1013.7 hPa 0 mm - 0 W/m² -
1787812204 21.11° C 95% 1013.9 hPa 0 mm - 0 W/m² -
1787811306 21.67° C 85% 1013.5 hPa 0 mm - 0 W/m² -
1787811304 21.11° C 95% 1013.7 hPa 0 mm - 0 W/m² -
1787810404 20.56° C 95% 1013.6 hPa 0 mm - 0 W/m² -
1787809503 20.56° C 96% 1013.6 hPa 0 mm - 0 W/m² -
1787808606 21.11° C 86% 1013.2 hPa 0 mm - 0 W/m² -
1787808605 20.56° C 97% 1013.4 hPa 0 mm - 0 W/m² -
1787807706 21.11° C 86% 1013.2 hPa 0 mm - 0 W/m² -
1787807703 20.56° C 96% 1013.3 hPa 0 mm - 0 W/m² -
1787806804 20° C 96% 1013.6 hPa 0 mm - 0 W/m² -
1787805904 20° C 96% 1013.3 hPa 0 mm - 0 W/m² -
1787805003 20° C 97% 1013.2 hPa 0 mm - 0 W/m² -
1787804106 20.56° C 87% 1013.1 hPa 0 mm - 0 W/m² -
1787804104 20° C 98% 1013.3 hPa 0 mm - 0 W/m² -
1787803206 20° C 88% 1013.1 hPa 0 mm - 0 W/m² -
1787803204 19.44° C 99% 1013.3 hPa 0 mm - 0 W/m² -
1787802303 19.44° C 99% 1013.2 hPa 0 mm - 0 W/m² -
1787801411 20° C 87% 1013 hPa 0 mm - 0 W/m² -
1787801404 19.44° C 98% 1013.2 hPa 0 mm - 0 W/m² -
1787800504 19.44° C 97% 1013.2 hPa 0 mm - 0 W/m² -

* Rain latest hour (hover to see other rain measurements)
** Current wind speed in m/s (hover to see current wind gust speed)